AirNav   Air Wisconsin Up To $57,000 Bonus
 
 1367 users online  

02MA Cuttyhunk Heliport
Gosnold, Massachusetts, USA

GOING TO GOSNOLD?


FAA INFORMATION EFFECTIVE 05 DECEMBER 2019

Location

FAA Identifier: 02MA
Lat/Long: 41-25-10.4700N 070-55-36.9200W
41-25.174500N 070-55.615333W
41.4195750,-70.9269222
(estimated)
Elevation: 9 ft. / 3 m (estimated)
Variation: 15W (1990)
Time zone: UTC -5 (UTC -4 during Daylight Saving Time)
Zip code: 02713

Heliport Operations

Heliport use: Private use, EMERGENCY MEDICAL USE.
Activation date: 09/1992
Control tower: no
ARTCC: BOSTON CENTER
FSS: BRIDGEPORT FLIGHT SERVICE STATION
Attendance: UNATNDD
Segmented circle: no

Heliport Communications

WX ASOS at MVY (14 nm E): 126.25 (508-696-6988)
WX ASOS at EWB (15 nm N): 126.85 (508-992-0195)
WX ASOS at UUU (17 nm NW): 132.075 (401-846-5910)

Nearby radio navigation aids

VOR radial/distance  VOR name  Freq  Var
MVYr291/14.2MARTHAS VINEYARD VOR/DME114.5015W
PVDr143/29.0PROVIDENCE VOR/DME115.6014W
SEYr078/32.9SANDY POINT VOR/DME117.8015W

 
NDB name  Hdg/Dist  Freq  Var  ID
TAUNTON188/27.622716WTAN - .- -.

Heliport Services

Runway Information

Helipad H1

Dimensions: 20 x 20 ft. / 6 x 6 m
Surface: asphalt
Latitude: 41-25.174500N
Longitude: 070-55.615333W
Elevation: 9.0 ft.
Traffic pattern: leftleft

Heliport Ownership and Management from official FAA records

Ownership: Publicly-owned
Owner: TOWN OF GOSNOLD
CUTTYHUNK ISLAND , P.O. BOX 28
GOSNOLD, MA 02713
Phone (508) 990-7408
Manager: G STEWART YOUNG, CHAIR-SELECTMEN

Additional Remarks

A52-H1 145 FT HILL 1500 FT NW.
FOR CD CTC BOSTON APCH AT 603-594-5551, WHEN APCH CLSD CTC BOSTON ARTCC AT 603-879-6859..

Instrument Procedures

There are no published instrument procedures at 02MA.

Some nearby airports with instrument procedures:

KMVY - Martha's Vineyard Airport (14 nm E)
KEWB - New Bedford Regional Airport (15 nm N)
KUUU - Newport State Airport (17 nm NW)
KFMH - Cape Cod Coast Guard Air Station (23 nm NE)
KOQU - Quonset State Airport (24 nm NW)
 
Loc | Ops | Rwys | IFR | FBO | Links
Com | Nav | Svcs | Stats | Notes
Area around 02MA (Cuttyhunk Heliport)
 
Road maps at: MapQuest Bing Google
 
Aerial photo
No photo
 
Sectional chart

 
Airport distance calculator
Flying to Cuttyhunk Heliport? Find the distance to fly.

From to 02MA

Sunrise and sunset
Times for 06-Dec-2019
 Local
(UTC-5)
 Zulu
(UTC)
Morning civil twilight06:2511:25
Sunrise06:5611:56
Sunset16:1321:13
Evening civil twilight16:4421:44

Current date and time
Zulu (UTC)  06-Dec-2019 21:10:15
Local (UTC-5)  06-Dec-2019 16:10:15
 
METAR
KMVY 
14nm E 
062053Z 22013KT 10SM SCT070 OVC085 08/03 A2997 RMK AO2 SLP147 T00780028 58022
KEWB 
16nm N 
062053Z 21007KT 10SM FEW050 OVC060 06/01 A2994 RMK AO2 SLP137 T00560006 56031
KUUU 
17nm NW 
062053Z AUTO 22007G19KT 10SM OVC060 08/02 A2994 RMK AO2 SLP139 T00780017 56028
KFMH 
22nm NE 
062045Z 25007KT 10SM BKN048 OVC055 04/01 A2996
KOQU 
25nm NW 
062050Z 24013KT 10SM FEW020 OVC060 07/01 A2983
TAF
KFMH 
22nm NE 
061734Z 0618/0718 27010KT P6SM SKC FM062000 23008KT P6SM VCSH OVC060 FM062100 22008KT 6SM -SNRA OVC035 FM062200 22009KT P6SM -RA OVC040 FM062300 23010G23KT P6SM VCSH OVC040 FM070800 32009KT P6SM FEW150
NOTAMs
Click for the latest NOTAMs
NOTAMs are issued by the DoD/FAA and will open in a separate window not controlled by AirNav.

 

 
 

Would you like to see your business listed on this page?

 If your business provides an interesting product or service to pilots, flight crews, aircraft, or users of the Cuttyhunk Heliport, you should consider listing it here.  To start the listing process, click on the button below
 
Add a business
 

Other Pages about Cuttyhunk Heliport

Update a link
 
Copyright © AirNav, LLC. All rights reserved. Privacy Policy  Contact